sensor_id;sensor_type;location;lat;lon;timestamp;temperature;humidity
22692;DHT22;11513;57.172;-2.134;2022-07-29T00:00:44;15.00;99.90
22692;DHT22;11513;57.172;-2.134;2022-07-29T00:03:13;15.00;99.90
22692;DHT22;11513;57.172;-2.134;2022-07-29T00:05:40;15.00;99.90
22692;DHT22;11513;57.172;-2.134;2022-07-29T00:08:06;14.90;99.90
22692;DHT22;11513;57.172;-2.134;2022-07-29T00:10:33;14.90;99.90
22692;DHT22;11513;57.172;-2.134;2022-07-29T00:12:58;14.90;99.90
22692;DHT22;11513;57.172;-2.134;2022-07-29T00:15:24;14.90;99.90
22692;DHT22;11513;57.172;-2.134;2022-07-29T00:17:50;14.90;99.90
22692;DHT22;11513;57.172;-2.134;2022-07-29T00:20:16;14.90;99.90
22692;DHT22;11513;57.172;-2.134;2022-07-29T00:22:42;14.90;99.90
22692;DHT22;11513;57.172;-2.134;2022-07-29T00:25:08;14.90;99.90
22692;DHT22;11513;57.172;-2.134;2022-07-29T00:27:35;14.80;99.90
22692;DHT22;11513;57.172;-2.134;2022-07-29T00:30:02;14.90;99.90
22692;DHT22;11513;57.172;-2.134;2022-07-29T00:32:27;14.90;99.90
22692;DHT22;11513;57.172;-2.134;2022-07-29T00:34:53;14.80;99.90
22692;DHT22;11513;57.172;-2.134;2022-07-29T00:37:38;14.80;99.90
22692;DHT22;11513;57.172;-2.134;2022-07-29T00:40:04;14.70;99.90
22692;DHT22;11513;57.172;-2.134;2022-07-29T00:42:29;14.70;99.90
22692;DHT22;11513;57.172;-2.134;2022-07-29T00:44:55;14.70;99.90
22692;DHT22;11513;57.172;-2.134;2022-07-29T00:47:21;14.70;99.90
22692;DHT22;11513;57.172;-2.134;2022-07-29T00:49:47;14.70;99.90
22692;DHT22;11513;57.172;-2.134;2022-07-29T00:52:13;14.60;99.90
22692;DHT22;11513;57.172;-2.134;2022-07-29T00:54:39;14.60;99.90
22692;DHT22;11513;57.172;-2.134;2022-07-29T00:57:07;14.60;99.90
22692;DHT22;11513;57.172;-2.134;2022-07-29T00:59:33;14.50;99.90
22692;DHT22;11513;57.172;-2.134;2022-07-29T01:01:59;14.50;99.90
22692;DHT22;11513;57.172;-2.134;2022-07-29T01:04:25;14.50;99.90
22692;DHT22;11513;57.172;-2.134;2022-07-29T01:06:53;14.40;99.90
22692;DHT22;11513;57.172;-2.134;2022-07-29T01:09:20;14.50;99.90
22692;DHT22;11513;57.172;-2.134;2022-07-29T01:11:47;14.50;99.90
22692;DHT22;11513;57.172;-2.134;2022-07-29T01:14:14;14.50;99.90
22692;DHT22;11513;57.172;-2.134;2022-07-29T01:16:54;14.60;99.90
22692;DHT22;11513;57.172;-2.134;2022-07-29T01:23:23;14.60;99.90
22692;DHT22;11513;57.172;-2.134;2022-07-29T01:31:24;14.70;99.90
22692;DHT22;11513;57.172;-2.134;2022-07-29T01:33:58;14.70;99.90
22692;DHT22;11513;57.172;-2.134;2022-07-29T01:36:37;14.70;99.90
22692;DHT22;11513;57.172;-2.134;2022-07-29T01:39:11;14.70;99.90
22692;DHT22;11513;57.172;-2.134;2022-07-29T01:41:43;14.70;99.90
22692;DHT22;11513;57.172;-2.134;2022-07-29T01:44:48;14.70;99.90
22692;DHT22;11513;57.172;-2.134;2022-07-29T01:47:20;14.70;99.90
22692;DHT22;11513;57.172;-2.134;2022-07-29T01:49:50;14.70;99.90
22692;DHT22;11513;57.172;-2.134;2022-07-29T01:52:31;14.70;99.90
22692;DHT22;11513;57.172;-2.134;2022-07-29T01:55:04;14.70;99.90
22692;DHT22;11513;57.172;-2.134;2022-07-29T01:57:33;14.80;99.90
22692;DHT22;11513;57.172;-2.134;2022-07-29T02:00:00;14.80;99.90
22692;DHT22;11513;57.172;-2.134;2022-07-29T02:02:28;14.80;99.90
22692;DHT22;11513;57.172;-2.134;2022-07-29T02:04:56;14.80;99.90
22692;DHT22;11513;57.172;-2.134;2022-07-29T02:07:24;14.80;99.90
22692;DHT22;11513;57.172;-2.134;2022-07-29T02:09:50;14.80;99.90
22692;DHT22;11513;57.172;-2.134;2022-07-29T02:12:18;14.80;99.90
22692;DHT22;11513;57.172;-2.134;2022-07-29T02:14:50;14.80;99.90
22692;DHT22;11513;57.172;-2.134;2022-07-29T02:17:25;14.80;99.90
22692;DHT22;11513;57.172;-2.134;2022-07-29T02:19:55;14.80;99.90
22692;DHT22;11513;57.172;-2.134;2022-07-29T02:22:23;14.80;99.90
22692;DHT22;11513;57.172;-2.134;2022-07-29T02:24:51;14.80;99.90
22692;DHT22;11513;57.172;-2.134;2022-07-29T02:27:19;14.80;99.90
22692;DHT22;11513;57.172;-2.134;2022-07-29T02:29:47;14.80;99.90
22692;DHT22;11513;57.172;-2.134;2022-07-29T02:32:15;14.80;99.90
22692;DHT22;11513;57.172;-2.134;2022-07-29T02:34:43;14.70;99.90
22692;DHT22;11513;57.172;-2.134;2022-07-29T02:37:12;14.70;99.90
22692;DHT22;11513;57.172;-2.134;2022-07-29T02:39:41;14.70;99.90
22692;DHT22;11513;57.172;-2.134;2022-07-29T02:42:11;14.70;99.90
22692;DHT22;11513;57.172;-2.134;2022-07-29T02:44:38;14.70;99.90
22692;DHT22;11513;57.172;-2.134;2022-07-29T02:47:32;14.70;99.90
22692;DHT22;11513;57.172;-2.134;2022-07-29T02:50:00;14.60;99.90
22692;DHT22;11513;57.172;-2.134;2022-07-29T02:55:25;14.60;99.90
22692;DHT22;11513;57.172;-2.134;2022-07-29T02:57:59;14.60;99.90
22692;DHT22;11513;57.172;-2.134;2022-07-29T03:00:29;14.60;99.90
22692;DHT22;11513;57.172;-2.134;2022-07-29T03:02:59;14.60;99.90
22692;DHT22;11513;57.172;-2.134;2022-07-29T03:05:26;14.60;99.90
22692;DHT22;11513;57.172;-2.134;2022-07-29T03:07:58;14.60;99.90
22692;DHT22;11513;57.172;-2.134;2022-07-29T03:10:26;14.50;99.90
22692;DHT22;11513;57.172;-2.134;2022-07-29T03:12:54;14.50;99.90
22692;DHT22;11513;57.172;-2.134;2022-07-29T03:15:20;14.50;99.90
22692;DHT22;11513;57.172;-2.134;2022-07-29T03:17:47;14.50;99.90
22692;DHT22;11513;57.172;-2.134;2022-07-29T03:20:14;14.50;99.90
22692;DHT22;11513;57.172;-2.134;2022-07-29T03:22:41;14.50;99.90
22692;DHT22;11513;57.172;-2.134;2022-07-29T03:25:17;14.50;99.90
22692;DHT22;11513;57.172;-2.134;2022-07-29T03:27:44;14.50;99.90
22692;DHT22;11513;57.172;-2.134;2022-07-29T03:30:11;14.50;99.90
22692;DHT22;11513;57.172;-2.134;2022-07-29T03:32:37;14.40;99.90
22692;DHT22;11513;57.172;-2.134;2022-07-29T03:35:04;14.40;99.90
22692;DHT22;11513;57.172;-2.134;2022-07-29T03:37:30;14.40;99.90
22692;DHT22;11513;57.172;-2.134;2022-07-29T03:39:57;14.50;99.90
22692;DHT22;11513;57.172;-2.134;2022-07-29T03:42:30;14.50;99.90
22692;DHT22;11513;57.172;-2.134;2022-07-29T03:44:58;14.50;99.90
22692;DHT22;11513;57.172;-2.134;2022-07-29T03:47:27;14.50;99.90
22692;DHT22;11513;57.172;-2.134;2022-07-29T03:49:59;14.50;99.90
22692;DHT22;11513;57.172;-2.134;2022-07-29T03:52:25;14.50;99.90
22692;DHT22;11513;57.172;-2.134;2022-07-29T03:54:52;14.50;99.90
22692;DHT22;11513;57.172;-2.134;2022-07-29T03:57:23;14.60;99.90
22692;DHT22;11513;57.172;-2.134;2022-07-29T03:59:51;14.60;99.90
22692;DHT22;11513;57.172;-2.134;2022-07-29T04:02:17;14.60;99.90
22692;DHT22;11513;57.172;-2.134;2022-07-29T04:04:44;14.60;99.90
22692;DHT22;11513;57.172;-2.134;2022-07-29T04:07:13;14.60;99.90
22692;DHT22;11513;57.172;-2.134;2022-07-29T04:09:39;14.60;99.90
22692;DHT22;11513;57.172;-2.134;2022-07-29T04:12:05;14.60;99.90
22692;DHT22;11513;57.172;-2.134;2022-07-29T04:14:33;14.60;99.90
22692;DHT22;11513;57.172;-2.134;2022-07-29T04:17:00;14.70;99.90
22692;DHT22;11513;57.172;-2.134;2022-07-29T04:19:26;14.60;99.90
22692;DHT22;11513;57.172;-2.134;2022-07-29T04:21:52;14.60;99.90
22692;DHT22;11513;57.172;-2.134;2022-07-29T04:24:18;14.60;99.90
22692;DHT22;11513;57.172;-2.134;2022-07-29T04:26:46;14.60;99.90
22692;DHT22;11513;57.172;-2.134;2022-07-29T04:29:12;14.50;99.90
22692;DHT22;11513;57.172;-2.134;2022-07-29T04:31:40;14.60;99.90
22692;DHT22;11513;57.172;-2.134;2022-07-29T04:34:06;14.50;99.90
22692;DHT22;11513;57.172;-2.134;2022-07-29T04:36:32;14.50;99.90
22692;DHT22;11513;57.172;-2.134;2022-07-29T04:38:57;14.50;99.90
22692;DHT22;11513;57.172;-2.134;2022-07-29T04:41:23;14.50;99.90
22692;DHT22;11513;57.172;-2.134;2022-07-29T04:43:49;14.60;99.90
22692;DHT22;11513;57.172;-2.134;2022-07-29T04:46:15;14.50;99.90
22692;DHT22;11513;57.172;-2.134;2022-07-29T04:48:41;14.50;99.90
22692;DHT22;11513;57.172;-2.134;2022-07-29T04:51:07;14.50;99.90
22692;DHT22;11513;57.172;-2.134;2022-07-29T04:53:32;14.50;99.90
22692;DHT22;11513;57.172;-2.134;2022-07-29T04:55:58;14.50;99.90
22692;DHT22;11513;57.172;-2.134;2022-07-29T04:58:24;14.50;99.90
22692;DHT22;11513;57.172;-2.134;2022-07-29T05:00:50;14.50;99.90
22692;DHT22;11513;57.172;-2.134;2022-07-29T05:03:16;14.50;99.90
22692;DHT22;11513;57.172;-2.134;2022-07-29T05:05:42;14.50;99.90
22692;DHT22;11513;57.172;-2.134;2022-07-29T05:08:08;14.50;99.90
22692;DHT22;11513;57.172;-2.134;2022-07-29T05:10:34;14.50;99.90
22692;DHT22;11513;57.172;-2.134;2022-07-29T05:13:07;14.60;99.90
22692;DHT22;11513;57.172;-2.134;2022-07-29T05:15:36;14.60;99.90
22692;DHT22;11513;57.172;-2.134;2022-07-29T05:18:03;14.60;99.90
22692;DHT22;11513;57.172;-2.134;2022-07-29T05:20:30;14.60;99.90
22692;DHT22;11513;57.172;-2.134;2022-07-29T05:22:59;14.60;99.90
22692;DHT22;11513;57.172;-2.134;2022-07-29T05:25:27;14.50;99.90
22692;DHT22;11513;57.172;-2.134;2022-07-29T05:27:54;14.60;99.90
22692;DHT22;11513;57.172;-2.134;2022-07-29T05:30:20;14.60;99.90
22692;DHT22;11513;57.172;-2.134;2022-07-29T05:32:46;14.60;99.90
22692;DHT22;11513;57.172;-2.134;2022-07-29T05:35:13;14.60;99.90
22692;DHT22;11513;57.172;-2.134;2022-07-29T05:37:39;14.60;99.90
22692;DHT22;11513;57.172;-2.134;2022-07-29T05:40:06;14.70;99.90
22692;DHT22;11513;57.172;-2.134;2022-07-29T05:42:32;14.70;99.90
22692;DHT22;11513;57.172;-2.134;2022-07-29T05:44:58;14.70;99.90
22692;DHT22;11513;57.172;-2.134;2022-07-29T05:47:24;14.70;99.90
22692;DHT22;11513;57.172;-2.134;2022-07-29T05:49:50;14.70;99.90
22692;DHT22;11513;57.172;-2.134;2022-07-29T05:52:16;14.70;99.90
22692;DHT22;11513;57.172;-2.134;2022-07-29T05:54:42;14.70;99.90
22692;DHT22;11513;57.172;-2.134;2022-07-29T05:57:14;14.70;99.90
22692;DHT22;11513;57.172;-2.134;2022-07-29T05:59:40;14.80;99.90
22692;DHT22;11513;57.172;-2.134;2022-07-29T06:02:06;14.80;99.90
22692;DHT22;11513;57.172;-2.134;2022-07-29T06:04:32;14.80;99.90
22692;DHT22;11513;57.172;-2.134;2022-07-29T06:06:58;14.80;99.90
22692;DHT22;11513;57.172;-2.134;2022-07-29T06:09:24;14.80;99.90
22692;DHT22;11513;57.172;-2.134;2022-07-29T06:11:51;14.80;99.90
22692;DHT22;11513;57.172;-2.134;2022-07-29T06:14:17;14.80;99.90
22692;DHT22;11513;57.172;-2.134;2022-07-29T06:16:43;14.90;99.90
22692;DHT22;11513;57.172;-2.134;2022-07-29T06:19:09;14.80;99.90
22692;DHT22;11513;57.172;-2.134;2022-07-29T06:21:35;14.90;99.90
22692;DHT22;11513;57.172;-2.134;2022-07-29T06:24:00;14.90;99.90
22692;DHT22;11513;57.172;-2.134;2022-07-29T06:26:27;14.90;99.90
22692;DHT22;11513;57.172;-2.134;2022-07-29T06:28:52;14.90;99.90
22692;DHT22;11513;57.172;-2.134;2022-07-29T06:31:18;14.90;99.90
22692;DHT22;11513;57.172;-2.134;2022-07-29T06:33:44;15.00;99.90
22692;DHT22;11513;57.172;-2.134;2022-07-29T06:36:10;15.00;99.90
22692;DHT22;11513;57.172;-2.134;2022-07-29T06:38:35;15.00;99.90
22692;DHT22;11513;57.172;-2.134;2022-07-29T06:41:03;15.00;99.90
22692;DHT22;11513;57.172;-2.134;2022-07-29T06:46:02;15.10;99.90
22692;DHT22;11513;57.172;-2.134;2022-07-29T06:48:28;15.10;99.90
22692;DHT22;11513;57.172;-2.134;2022-07-29T06:50:54;15.10;99.90
22692;DHT22;11513;57.172;-2.134;2022-07-29T06:53:21;15.10;99.90
22692;DHT22;11513;57.172;-2.134;2022-07-29T06:55:47;15.10;99.90
22692;DHT22;11513;57.172;-2.134;2022-07-29T06:58:12;15.10;99.90
22692;DHT22;11513;57.172;-2.134;2022-07-29T07:00:41;15.30;99.90
22692;DHT22;11513;57.172;-2.134;2022-07-29T07:03:07;15.60;99.90
22692;DHT22;11513;57.172;-2.134;2022-07-29T07:05:33;15.70;99.90
22692;DHT22;11513;57.172;-2.134;2022-07-29T07:07:59;15.90;99.90
22692;DHT22;11513;57.172;-2.134;2022-07-29T07:10:25;15.90;99.90
22692;DHT22;11513;57.172;-2.134;2022-07-29T07:12:51;16.10;99.90
22692;DHT22;11513;57.172;-2.134;2022-07-29T07:15:16;16.20;99.90
22692;DHT22;11513;57.172;-2.134;2022-07-29T07:17:42;16.30;99.90
22692;DHT22;11513;57.172;-2.134;2022-07-29T07:20:08;16.30;99.90
22692;DHT22;11513;57.172;-2.134;2022-07-29T07:22:34;16.30;99.90
22692;DHT22;11513;57.172;-2.134;2022-07-29T07:25:00;16.40;99.90
22692;DHT22;11513;57.172;-2.134;2022-07-29T07:27:25;16.30;99.90
22692;DHT22;11513;57.172;-2.134;2022-07-29T07:29:52;16.30;99.90
22692;DHT22;11513;57.172;-2.134;2022-07-29T07:32:18;16.20;99.90
22692;DHT22;11513;57.172;-2.134;2022-07-29T07:34:44;16.20;99.90
22692;DHT22;11513;57.172;-2.134;2022-07-29T07:37:10;16.10;99.90
22692;DHT22;11513;57.172;-2.134;2022-07-29T07:39:36;16.10;99.90
22692;DHT22;11513;57.172;-2.134;2022-07-29T07:42:02;16.10;99.90
22692;DHT22;11513;57.172;-2.134;2022-07-29T07:44:28;16.10;99.90
22692;DHT22;11513;57.172;-2.134;2022-07-29T07:46:54;16.10;99.90
22692;DHT22;11513;57.172;-2.134;2022-07-29T07:49:19;16.20;99.90
22692;DHT22;11513;57.172;-2.134;2022-07-29T07:51:45;16.20;99.90
22692;DHT22;11513;57.172;-2.134;2022-07-29T07:54:11;16.30;99.90
22692;DHT22;11513;57.172;-2.134;2022-07-29T07:56:37;16.30;99.90
22692;DHT22;11513;57.172;-2.134;2022-07-29T07:59:02;16.40;99.90
22692;DHT22;11513;57.172;-2.134;2022-07-29T08:01:28;16.50;99.90
22692;DHT22;11513;57.172;-2.134;2022-07-29T08:03:54;16.50;99.90
22692;DHT22;11513;57.172;-2.134;2022-07-29T08:06:20;16.60;99.90
22692;DHT22;11513;57.172;-2.134;2022-07-29T08:08:45;16.70;99.90
22692;DHT22;11513;57.172;-2.134;2022-07-29T08:11:11;16.90;99.90
22692;DHT22;11513;57.172;-2.134;2022-07-29T08:13:37;16.90;99.90
22692;DHT22;11513;57.172;-2.134;2022-07-29T08:16:03;17.00;99.90
22692;DHT22;11513;57.172;-2.134;2022-07-29T08:18:41;17.10;99.90
22692;DHT22;11513;57.172;-2.134;2022-07-29T08:21:08;17.40;99.90
22692;DHT22;11513;57.172;-2.134;2022-07-29T08:23:34;17.90;99.90
22692;DHT22;11513;57.172;-2.134;2022-07-29T08:26:05;18.30;99.90
22692;DHT22;11513;57.172;-2.134;2022-07-29T08:28:31;18.70;99.90
22692;DHT22;11513;57.172;-2.134;2022-07-29T08:30:57;19.10;99.90
22692;DHT22;11513;57.172;-2.134;2022-07-29T08:33:23;19.60;99.90
22692;DHT22;11513;57.172;-2.134;2022-07-29T08:35:49;20.00;99.90
22692;DHT22;11513;57.172;-2.134;2022-07-29T08:38:16;20.00;99.90
22692;DHT22;11513;57.172;-2.134;2022-07-29T08:40:41;20.10;99.90
22692;DHT22;11513;57.172;-2.134;2022-07-29T08:43:08;20.50;99.90
22692;DHT22;11513;57.172;-2.134;2022-07-29T08:45:49;20.90;99.90
22692;DHT22;11513;57.172;-2.134;2022-07-29T08:48:18;21.20;99.90
22692;DHT22;11513;57.172;-2.134;2022-07-29T08:50:45;21.20;99.90
22692;DHT22;11513;57.172;-2.134;2022-07-29T08:53:14;21.50;99.90
22692;DHT22;11513;57.172;-2.134;2022-07-29T08:55:43;21.90;99.90
22692;DHT22;11513;57.172;-2.134;2022-07-29T08:58:10;21.90;99.90
22692;DHT22;11513;57.172;-2.134;2022-07-29T09:00:37;21.80;99.90
22692;DHT22;11513;57.172;-2.134;2022-07-29T09:03:06;21.90;99.90
22692;DHT22;11513;57.172;-2.134;2022-07-29T09:05:34;21.80;99.90
22692;DHT22;11513;57.172;-2.134;2022-07-29T09:08:01;22.00;99.90
22692;DHT22;11513;57.172;-2.134;2022-07-29T09:10:27;22.20;99.90
22692;DHT22;11513;57.172;-2.134;2022-07-29T09:12:54;22.20;99.90
22692;DHT22;11513;57.172;-2.134;2022-07-29T09:15:20;22.30;99.90
22692;DHT22;11513;57.172;-2.134;2022-07-29T09:17:48;22.30;99.90
22692;DHT22;11513;57.172;-2.134;2022-07-29T09:20:16;22.30;99.90
22692;DHT22;11513;57.172;-2.134;2022-07-29T09:22:43;22.20;99.90
22692;DHT22;11513;57.172;-2.134;2022-07-29T09:25:12;22.30;99.90
22692;DHT22;11513;57.172;-2.134;2022-07-29T09:27:38;22.30;99.90
22692;DHT22;11513;57.172;-2.134;2022-07-29T09:30:07;22.50;99.90
22692;DHT22;11513;57.172;-2.134;2022-07-29T09:32:33;22.60;99.90
22692;DHT22;11513;57.172;-2.134;2022-07-29T09:35:23;22.80;99.90
22692;DHT22;11513;57.172;-2.134;2022-07-29T09:37:49;22.70;99.90
22692;DHT22;11513;57.172;-2.134;2022-07-29T09:40:17;22.60;99.90
22692;DHT22;11513;57.172;-2.134;2022-07-29T09:42:44;22.70;99.90
22692;DHT22;11513;57.172;-2.134;2022-07-29T09:45:10;22.60;99.90
22692;DHT22;11513;57.172;-2.134;2022-07-29T09:47:45;22.30;99.90
22692;DHT22;11513;57.172;-2.134;2022-07-29T09:50:15;22.40;99.90
22692;DHT22;11513;57.172;-2.134;2022-07-29T09:52:58;22.70;99.90
22692;DHT22;11513;57.172;-2.134;2022-07-29T09:55:24;22.70;99.90
22692;DHT22;11513;57.172;-2.134;2022-07-29T09:57:50;22.60;99.90
22692;DHT22;11513;57.172;-2.134;2022-07-29T10:00:18;22.50;99.90
22692;DHT22;11513;57.172;-2.134;2022-07-29T10:02:45;22.60;99.90
22692;DHT22;11513;57.172;-2.134;2022-07-29T10:05:23;22.80;99.90
22692;DHT22;11513;57.172;-2.134;2022-07-29T10:07:54;22.90;99.90
22692;DHT22;11513;57.172;-2.134;2022-07-29T10:10:22;23.20;99.90
22692;DHT22;11513;57.172;-2.134;2022-07-29T10:12:53;23.20;99.90
22692;DHT22;11513;57.172;-2.134;2022-07-29T10:15:21;23.00;99.90
22692;DHT22;11513;57.172;-2.134;2022-07-29T10:17:47;23.20;99.90
22692;DHT22;11513;57.172;-2.134;2022-07-29T10:20:15;23.50;99.90
22692;DHT22;11513;57.172;-2.134;2022-07-29T10:22:41;23.60;99.90
22692;DHT22;11513;57.172;-2.134;2022-07-29T10:25:08;23.90;99.90
22692;DHT22;11513;57.172;-2.134;2022-07-29T10:27:36;23.70;99.90
22692;DHT22;11513;57.172;-2.134;2022-07-29T10:30:05;23.40;99.90
22692;DHT22;11513;57.172;-2.134;2022-07-29T10:38:42;23.20;99.90
22692;DHT22;11513;57.172;-2.134;2022-07-29T10:44:03;23.50;99.90
22692;DHT22;11513;57.172;-2.134;2022-07-29T10:46:35;23.60;99.90
22692;DHT22;11513;57.172;-2.134;2022-07-29T10:49:21;23.50;99.90
22692;DHT22;11513;57.172;-2.134;2022-07-29T10:54:38;23.50;99.90
22692;DHT22;11513;57.172;-2.134;2022-07-29T11:05:07;22.80;99.90
22692;DHT22;11513;57.172;-2.134;2022-07-29T11:07:35;23.30;99.90
22692;DHT22;11513;57.172;-2.134;2022-07-29T11:15:09;23.50;99.90
22692;DHT22;11513;57.172;-2.134;2022-07-29T11:20:43;23.60;99.90
22692;DHT22;11513;57.172;-2.134;2022-07-29T11:23:21;23.40;99.90
22692;DHT22;11513;57.172;-2.134;2022-07-29T11:26:16;23.40;99.90
22692;DHT22;11513;57.172;-2.134;2022-07-29T11:29:06;23.30;99.90
22692;DHT22;11513;57.172;-2.134;2022-07-29T11:31:43;23.10;99.90
22692;DHT22;11513;57.172;-2.134;2022-07-29T11:34:26;23.40;99.90
22692;DHT22;11513;57.172;-2.134;2022-07-29T11:47:58;23.30;99.90
22692;DHT22;11513;57.172;-2.134;2022-07-29T11:50:31;23.50;99.90
22692;DHT22;11513;57.172;-2.134;2022-07-29T11:52:57;23.90;99.90
22692;DHT22;11513;57.172;-2.134;2022-07-29T11:55:24;24.10;99.90
22692;DHT22;11513;57.172;-2.134;2022-07-29T11:57:52;23.90;99.90
22692;DHT22;11513;57.172;-2.134;2022-07-29T12:00:41;23.90;99.90
22692;DHT22;11513;57.172;-2.134;2022-07-29T12:03:11;23.90;99.90
22692;DHT22;11513;57.172;-2.134;2022-07-29T12:05:40;24.00;99.90
22692;DHT22;11513;57.172;-2.134;2022-07-29T12:08:09;24.40;99.90
22692;DHT22;11513;57.172;-2.134;2022-07-29T12:10:35;24.50;99.90
22692;DHT22;11513;57.172;-2.134;2022-07-29T12:13:01;24.40;99.90
22692;DHT22;11513;57.172;-2.134;2022-07-29T12:15:26;24.70;99.90
22692;DHT22;11513;57.172;-2.134;2022-07-29T12:17:52;24.70;99.90
22692;DHT22;11513;57.172;-2.134;2022-07-29T12:20:27;24.40;99.90
22692;DHT22;11513;57.172;-2.134;2022-07-29T12:22:54;24.20;99.90
22692;DHT22;11513;57.172;-2.134;2022-07-29T12:25:22;24.10;99.90
22692;DHT22;11513;57.172;-2.134;2022-07-29T12:27:57;23.90;99.90
22692;DHT22;11513;57.172;-2.134;2022-07-29T12:30:23;24.00;99.90
22692;DHT22;11513;57.172;-2.134;2022-07-29T12:32:59;24.20;99.90
22692;DHT22;11513;57.172;-2.134;2022-07-29T12:35:24;23.90;99.90
22692;DHT22;11513;57.172;-2.134;2022-07-29T12:37:51;23.70;99.90
22692;DHT22;11513;57.172;-2.134;2022-07-29T12:40:18;23.80;99.90
22692;DHT22;11513;57.172;-2.134;2022-07-29T12:43:23;23.50;99.90
22692;DHT22;11513;57.172;-2.134;2022-07-29T12:45:53;23.10;99.90
22692;DHT22;11513;57.172;-2.134;2022-07-29T12:48:40;22.80;99.90
22692;DHT22;11513;57.172;-2.134;2022-07-29T12:51:07;22.60;99.90
22692;DHT22;11513;57.172;-2.134;2022-07-29T12:53:35;22.40;99.90
22692;DHT22;11513;57.172;-2.134;2022-07-29T12:56:02;22.30;99.90
22692;DHT22;11513;57.172;-2.134;2022-07-29T13:01:20;21.60;99.90
22692;DHT22;11513;57.172;-2.134;2022-07-29T13:03:56;21.40;99.90
22692;DHT22;11513;57.172;-2.134;2022-07-29T13:09:09;21.60;99.90
22692;DHT22;11513;57.172;-2.134;2022-07-29T13:11:41;21.30;99.90
22692;DHT22;11513;57.172;-2.134;2022-07-29T13:14:09;21.30;99.90
22692;DHT22;11513;57.172;-2.134;2022-07-29T13:16:40;21.20;99.90
22692;DHT22;11513;57.172;-2.134;2022-07-29T13:19:39;21.30;99.90
22692;DHT22;11513;57.172;-2.134;2022-07-29T13:22:09;21.10;99.90
22692;DHT22;11513;57.172;-2.134;2022-07-29T13:27:11;20.60;99.90
22692;DHT22;11513;57.172;-2.134;2022-07-29T13:29:38;20.40;99.90
22692;DHT22;11513;57.172;-2.134;2022-07-29T13:32:05;20.20;99.90
22692;DHT22;11513;57.172;-2.134;2022-07-29T13:34:31;20.30;99.90
22692;DHT22;11513;57.172;-2.134;2022-07-29T13:36:57;20.30;99.90
22692;DHT22;11513;57.172;-2.134;2022-07-29T13:39:23;20.10;99.90
22692;DHT22;11513;57.172;-2.134;2022-07-29T13:41:49;19.80;99.90
22692;DHT22;11513;57.172;-2.134;2022-07-29T13:44:15;19.80;99.90
22692;DHT22;11513;57.172;-2.134;2022-07-29T13:46:41;19.80;99.90
22692;DHT22;11513;57.172;-2.134;2022-07-29T13:49:06;19.70;99.90
22692;DHT22;11513;57.172;-2.134;2022-07-29T13:51:32;19.80;99.90
22692;DHT22;11513;57.172;-2.134;2022-07-29T13:54:01;19.70;99.90
22692;DHT22;11513;57.172;-2.134;2022-07-29T13:56:30;19.50;99.90
22692;DHT22;11513;57.172;-2.134;2022-07-29T13:58:56;19.50;99.90
22692;DHT22;11513;57.172;-2.134;2022-07-29T14:01:23;19.40;99.90
22692;DHT22;11513;57.172;-2.134;2022-07-29T14:03:49;19.30;99.90
22692;DHT22;11513;57.172;-2.134;2022-07-29T14:06:15;19.20;99.90
22692;DHT22;11513;57.172;-2.134;2022-07-29T14:08:41;19.10;99.90
22692;DHT22;11513;57.172;-2.134;2022-07-29T14:11:07;19.10;99.90
22692;DHT22;11513;57.172;-2.134;2022-07-29T14:13:32;19.10;99.90
22692;DHT22;11513;57.172;-2.134;2022-07-29T14:15:58;19.20;99.90
22692;DHT22;11513;57.172;-2.134;2022-07-29T14:18:24;19.20;99.90
22692;DHT22;11513;57.172;-2.134;2022-07-29T14:20:50;19.30;99.90
22692;DHT22;11513;57.172;-2.134;2022-07-29T14:23:17;19.30;99.90
22692;DHT22;11513;57.172;-2.134;2022-07-29T14:25:42;19.40;99.90
22692;DHT22;11513;57.172;-2.134;2022-07-29T14:28:08;19.30;99.90
22692;DHT22;11513;57.172;-2.134;2022-07-29T14:30:34;19.40;99.90
22692;DHT22;11513;57.172;-2.134;2022-07-29T14:33:00;19.50;99.90
22692;DHT22;11513;57.172;-2.134;2022-07-29T14:35:26;19.40;99.90
22692;DHT22;11513;57.172;-2.134;2022-07-29T14:37:51;19.30;99.90
22692;DHT22;11513;57.172;-2.134;2022-07-29T14:40:17;19.20;99.90
22692;DHT22;11513;57.172;-2.134;2022-07-29T14:42:43;19.10;99.90
22692;DHT22;11513;57.172;-2.134;2022-07-29T14:45:10;19.10;99.90
22692;DHT22;11513;57.172;-2.134;2022-07-29T14:47:36;19.10;99.90
22692;DHT22;11513;57.172;-2.134;2022-07-29T14:50:03;19.10;99.90
22692;DHT22;11513;57.172;-2.134;2022-07-29T14:52:30;19.10;99.90
22692;DHT22;11513;57.172;-2.134;2022-07-29T14:54:56;19.00;99.90
22692;DHT22;11513;57.172;-2.134;2022-07-29T14:57:21;19.10;99.90
22692;DHT22;11513;57.172;-2.134;2022-07-29T14:59:47;19.10;99.90
22692;DHT22;11513;57.172;-2.134;2022-07-29T15:02:13;19.10;99.90
22692;DHT22;11513;57.172;-2.134;2022-07-29T15:04:38;18.90;99.90
22692;DHT22;11513;57.172;-2.134;2022-07-29T15:07:04;18.90;99.90
22692;DHT22;11513;57.172;-2.134;2022-07-29T15:09:30;18.70;99.90
22692;DHT22;11513;57.172;-2.134;2022-07-29T15:11:56;18.60;99.90
22692;DHT22;11513;57.172;-2.134;2022-07-29T15:14:22;18.50;99.90
22692;DHT22;11513;57.172;-2.134;2022-07-29T15:16:48;18.60;99.90
22692;DHT22;11513;57.172;-2.134;2022-07-29T15:19:13;18.70;99.90
22692;DHT22;11513;57.172;-2.134;2022-07-29T15:21:39;18.70;99.90
22692;DHT22;11513;57.172;-2.134;2022-07-29T15:24:05;18.80;99.90
22692;DHT22;11513;57.172;-2.134;2022-07-29T15:26:32;18.80;99.90
22692;DHT22;11513;57.172;-2.134;2022-07-29T15:28:59;18.70;99.90
22692;DHT22;11513;57.172;-2.134;2022-07-29T15:31:25;18.70;99.90
22692;DHT22;11513;57.172;-2.134;2022-07-29T15:33:50;18.60;99.90
22692;DHT22;11513;57.172;-2.134;2022-07-29T15:36:16;18.60;99.90
22692;DHT22;11513;57.172;-2.134;2022-07-29T15:38:42;18.70;99.90
22692;DHT22;11513;57.172;-2.134;2022-07-29T15:41:09;18.70;99.90
22692;DHT22;11513;57.172;-2.134;2022-07-29T15:43:43;18.80;99.90
22692;DHT22;11513;57.172;-2.134;2022-07-29T15:46:19;18.70;99.90
22692;DHT22;11513;57.172;-2.134;2022-07-29T15:49:05;18.70;99.90
22692;DHT22;11513;57.172;-2.134;2022-07-29T15:51:31;18.70;99.90
22692;DHT22;11513;57.172;-2.134;2022-07-29T15:53:58;18.60;99.90
22692;DHT22;11513;57.172;-2.134;2022-07-29T15:56:28;18.50;99.90
22692;DHT22;11513;57.172;-2.134;2022-07-29T15:58:53;18.50;99.90
22692;DHT22;11513;57.172;-2.134;2022-07-29T16:01:19;18.40;99.90
22692;DHT22;11513;57.172;-2.134;2022-07-29T16:03:45;18.30;99.90
22692;DHT22;11513;57.172;-2.134;2022-07-29T16:06:11;18.20;99.90
22692;DHT22;11513;57.172;-2.134;2022-07-29T16:08:37;18.30;99.90
22692;DHT22;11513;57.172;-2.134;2022-07-29T16:11:03;18.30;99.90
22692;DHT22;11513;57.172;-2.134;2022-07-29T16:13:29;18.20;99.90
22692;DHT22;11513;57.172;-2.134;2022-07-29T16:15:54;18.20;99.90
22692;DHT22;11513;57.172;-2.134;2022-07-29T16:18:20;18.20;99.90
22692;DHT22;11513;57.172;-2.134;2022-07-29T16:20:46;18.20;99.90
22692;DHT22;11513;57.172;-2.134;2022-07-29T16:23:12;18.10;99.90